createdAt,value
2022-08-10T00:01:54.837Z,97900.59
2022-08-10T00:04:23.596Z,97900.47
2022-08-10T00:06:55.276Z,97903.72
2022-08-10T00:09:23.673Z,97893.88
2022-08-10T00:11:50.380Z,97896.41
2022-08-10T00:14:17.235Z,97892.31
2022-08-10T00:16:43.859Z,97898.69
2022-08-10T00:19:10.572Z,97887.13
2022-08-10T00:21:37.563Z,97894.03
2022-08-10T00:24:04.460Z,97894.47
2022-08-10T00:27:52.727Z,97879.41
2022-08-10T00:29:17.712Z,97876.44
2022-08-10T00:31:58.098Z,97883.19
2022-08-10T00:34:31.289Z,97879.81
2022-08-10T00:36:58.265Z,97878.53
2022-08-10T00:39:26.037Z,97878.16
2022-08-10T00:42:01.862Z,97872.78
2022-08-10T00:44:43.345Z,97878.41
2022-08-10T00:47:15.366Z,97868.44
2022-08-10T00:49:58.034Z,97876.88
2022-08-10T00:52:27.479Z,97875.59
2022-08-10T00:54:55.059Z,97875.59
2022-08-10T00:57:21.843Z,97870.25
2022-08-10T00:59:58.034Z,97873.91
2022-08-10T01:02:32.150Z,97870.53
2022-08-10T01:05:03.018Z,97870.53
2022-08-10T01:07:41.612Z,97869.97
2022-08-10T01:10:21.905Z,97861.66
2022-08-10T01:13:13.370Z,97863.66
2022-08-10T01:15:42.861Z,97862.81
2022-08-10T01:18:17.680Z,97867.72
2022-08-10T01:21:22.000Z,97859.25
2022-08-10T01:24:25.039Z,97862.50
2022-08-10T01:27:14.718Z,97858.97
2022-08-10T01:30:01.914Z,97862.22
2022-08-10T01:32:37.455Z,97864.59
2022-08-10T01:35:30.147Z,97858.16
2022-08-10T01:38:24.609Z,97859.53
2022-08-10T01:41:01.692Z,97863.06
2022-08-10T01:43:31.718Z,97859.53
2022-08-10T01:46:01.749Z,97865.31
2022-08-10T01:48:32.947Z,97861.19
2022-08-10T01:51:02.478Z,97860.47
2022-08-10T01:53:41.268Z,97867.78
2022-08-10T01:56:12.219Z,97860.03
2022-08-10T01:58:40.219Z,97865.94
2022-08-10T02:01:09.835Z,97858.63
2022-08-10T02:04:03.067Z,97861.31
2022-08-10T02:06:29.593Z,97865.94
2022-08-10T02:09:06.024Z,97864.97
2022-08-10T02:12:06.546Z,97874.53
2022-08-10T02:14:51.630Z,97876.63
2022-08-10T02:18:00.499Z,97864.97
2022-08-10T02:20:18.256Z,97863.00
2022-08-10T02:22:48.983Z,97865.81
2022-08-10T02:25:41.001Z,97870.69
2022-08-10T02:28:07.583Z,97879.84
2022-08-10T02:30:35.184Z,97870.16
2022-08-10T02:33:03.144Z,97883.34
2022-08-10T02:35:39.922Z,97874.88
2022-08-10T02:38:59.626Z,97869.09
2022-08-10T02:45:14.973Z,97879.34
2022-08-10T02:45:24.326Z,97878.88
2022-08-10T02:47:21.985Z,97873.53
2022-08-10T02:49:54.969Z,97881.84
2022-08-10T02:52:28.110Z,97875.19
2022-08-10T02:55:06.189Z,97874.44
2022-08-10T02:58:17.367Z,97877.13
2022-08-10T03:00:44.487Z,97881.22
2022-08-10T03:03:17.778Z,97880.50
2022-08-10T03:05:47.646Z,97868.13
2022-08-10T03:08:18.836Z,97880.78
2022-08-10T03:10:46.383Z,97876.56
2022-08-10T03:13:14.974Z,97878.38
2022-08-10T03:15:42.623Z,97878.63
2022-08-10T03:18:10.219Z,97875.38
2022-08-10T03:20:40.751Z,97869.34
2022-08-10T03:23:27.989Z,97866.34
2022-08-10T03:25:57.496Z,97865.75
2022-08-10T03:28:26.946Z,97865.03
2022-08-10T03:30:54.708Z,97873.06
2022-08-10T03:33:22.748Z,97873.91
2022-08-10T03:36:42.357Z,97866.63
2022-08-10T03:38:37.551Z,97868.03
2022-08-10T03:41:08.480Z,97862.00
2022-08-10T03:43:35.770Z,97859.56
2022-08-10T03:46:06.254Z,97871.69
2022-08-10T03:48:49.375Z,97870.00
2022-08-10T03:51:18.857Z,97868.88
2022-08-10T03:54:05.038Z,97865.75
2022-08-10T03:56:35.407Z,97865.75
2022-08-10T03:59:02.613Z,97860.78
2022-08-10T04:02:45.178Z,97865.03
2022-08-10T04:04:23.631Z,97865.16
2022-08-10T04:06:54.855Z,97867.81
2022-08-10T04:09:54.731Z,97869.78
2022-08-10T04:12:17.372Z,97877.91
2022-08-10T04:14:51.098Z,97869.19
2022-08-10T04:18:05.115Z,97868.59
2022-08-10T04:20:21.930Z,97864.97
2022-08-10T04:22:52.117Z,97866.06
2022-08-10T04:25:21.044Z,97871.66
2022-08-10T04:27:48.642Z,97872.78
2022-08-10T04:30:15.612Z,97874.03
2022-08-10T04:32:43.720Z,97873.03
2022-08-10T04:35:13.722Z,97878.25
2022-08-10T04:37:47.318Z,97879.94
2022-08-10T04:40:28.588Z,97878.56
2022-08-10T04:43:07.353Z,97882.66
2022-08-10T04:45:50.566Z,97874.66
2022-08-10T04:48:43.016Z,97874.28
2022-08-10T04:51:18.932Z,97872.31
2022-08-10T04:54:02.845Z,97880.19
2022-08-10T04:56:33.539Z,97878.38
2022-08-10T04:59:00.754Z,97878.38
2022-08-10T05:02:09.873Z,97883.47
2022-08-10T05:04:33.958Z,97882.38
2022-08-10T05:07:01.480Z,97883.78
2022-08-10T05:09:28.071Z,97884.50
2022-08-10T05:11:54.747Z,97888.47
2022-08-10T05:14:21.326Z,97891.72
2022-08-10T05:16:47.941Z,97892.16
2022-08-10T05:19:14.558Z,97880.38
2022-08-10T05:22:03.956Z,97892.78
2022-08-10T05:24:27.793Z,97884.97
2022-08-10T05:27:00.632Z,97878.50
2022-08-10T05:29:36.406Z,97878.81
2022-08-10T05:32:03.341Z,97879.09
2022-08-10T05:34:30.296Z,97886.41
2022-08-10T05:36:57.995Z,97885.88
2022-08-10T05:39:30.238Z,97879.72
2022-08-10T05:42:01.282Z,97878.53
2022-08-10T05:44:29.162Z,97873.19
2022-08-10T05:46:56.127Z,97873.22
2022-08-10T05:49:22.735Z,97874.50
2022-08-10T05:51:49.411Z,97883.63
2022-08-10T05:54:16.132Z,97878.66
2022-08-10T05:56:54.061Z,97878.56
2022-08-10T06:00:33.384Z,97872.19
2022-08-10T06:02:34.963Z,97874.44
2022-08-10T06:05:14.696Z,97878.06
2022-08-10T06:08:03.891Z,97872.78
2022-08-10T06:10:32.972Z,97883.72
2022-08-10T06:13:30.737Z,97877.84
2022-08-10T06:16:06.004Z,97880.22
2022-08-10T06:18:32.941Z,97881.69
2022-08-10T06:21:00.942Z,97883.16
2022-08-10T06:23:32.623Z,97880.13
2022-08-10T06:26:10.956Z,97883.06
2022-08-10T06:28:56.058Z,97883.44
2022-08-10T06:31:46.994Z,97880.97
2022-08-10T06:34:36.746Z,97884.06
2022-08-10T06:37:05.143Z,97883.06
2022-08-10T06:39:34.493Z,97890.47
2022-08-10T06:42:16.800Z,97891.53
2022-08-10T06:44:52.673Z,97903.00
2022-08-10T06:47:22.800Z,97899.69
2022-08-10T06:49:54.234Z,97896.97
2022-08-10T06:52:30.614Z,97900.69
2022-08-10T06:55:00.678Z,97906.78
2022-08-10T06:57:31.067Z,97911.91
2022-08-10T06:59:59.247Z,97906.31
2022-08-10T07:02:34.320Z,97909.31
2022-08-10T07:05:04.078Z,97901.81
2022-08-10T07:07:35.034Z,97906.19
2022-08-10T07:10:01.743Z,97904.72
2022-08-10T07:12:35.273Z,97897.41
2022-08-10T07:15:03.087Z,97902.81
2022-08-10T07:17:35.908Z,97904.44
2022-08-10T07:20:09.416Z,97904.38
2022-08-10T07:23:01.785Z,97896.59
2022-08-10T07:25:25.997Z,97903.75
2022-08-10T07:28:00.587Z,97902.88
2022-08-10T07:30:31.558Z,97896.31
2022-08-10T07:33:00.429Z,97901.56
2022-08-10T07:35:33.216Z,97893.50
2022-08-10T07:38:06.525Z,97903.91
2022-08-10T07:40:33.900Z,97903.09
2022-08-10T07:43:02.217Z,97903.59
2022-08-10T07:45:33.456Z,97909.19
2022-08-10T07:48:07.441Z,97911.69
2022-08-10T07:50:38.003Z,97913.53
2022-08-10T07:53:10.133Z,97915.78
2022-08-10T07:56:03.407Z,97916.09
2022-08-10T07:58:36.839Z,97921.81
2022-08-10T08:01:03.609Z,97919.13
2022-08-10T08:03:32.625Z,97916.22
2022-08-10T08:06:05.078Z,97916.41
2022-08-10T08:08:40.536Z,97909.94
2022-08-10T08:11:08.751Z,97917.00
2022-08-10T08:13:37.891Z,97904.91
2022-08-10T08:16:19.154Z,97918.69
2022-08-10T08:18:58.105Z,97912.63
2022-08-10T08:24:06.969Z,97912.22
2022-08-10T08:24:31.387Z,97910.47
2022-08-10T08:27:02.283Z,97914.00
2022-08-10T08:29:31.489Z,97921.66
2022-08-10T08:32:01.820Z,97917.47
2022-08-10T08:34:32.501Z,97921.88
2022-08-10T08:37:01.131Z,97918.03
2022-08-10T08:39:28.780Z,97921.81
2022-08-10T08:42:14.656Z,97917.47
2022-08-10T08:45:05.838Z,97919.16
2022-08-10T08:48:04.397Z,97919.25
2022-08-10T08:50:30.162Z,97916.91
2022-08-10T08:53:22.558Z,97911.34
2022-08-10T08:56:05.962Z,97908.47
2022-08-10T08:59:05.719Z,97911.25
2022-08-10T09:01:50.945Z,97908.69
2022-08-10T09:04:47.279Z,97915.19
2022-08-10T09:07:39.369Z,97900.78
2022-08-10T09:10:51.598Z,97896.28
2022-08-10T09:13:34.539Z,97903.44
2022-08-10T09:16:34.995Z,97899.91
2022-08-10T09:19:36.374Z,97896.81
2022-08-10T09:22:38.013Z,97897.53
2022-08-10T09:25:18.832Z,97897.38
2022-08-10T09:27:49.600Z,97895.63
2022-08-10T09:30:28.431Z,97891.56
2022-08-10T09:36:24.604Z,97889.44
2022-08-10T09:36:32.996Z,97879.06
2022-08-10T09:40:56.379Z,97881.50
2022-08-10T09:42:24.055Z,97869.03
2022-08-10T09:45:03.221Z,97870.97
2022-08-10T09:47:58.869Z,97864.75
2022-08-10T09:51:05.364Z,97866.25
2022-08-10T09:53:44.261Z,97868.84
2022-08-10T09:56:30.564Z,97877.78
2022-08-10T09:59:27.175Z,97866.50
2022-08-10T10:02:18.111Z,97868.59
2022-08-10T10:05:02.052Z,97846.81
2022-08-10T10:07:29.881Z,97855.91
2022-08-10T10:10:04.917Z,97858.19
2022-08-10T10:12:50.466Z,97840.56
2022-08-10T10:15:50.964Z,97859.50
2022-08-10T10:18:28.576Z,97850.69
2022-08-10T10:21:11.499Z,97838.00
2022-08-10T10:24:40.787Z,97834.34
2022-08-10T10:27:24.450Z,97839.63
2022-08-10T10:30:11.488Z,97838.53
2022-08-10T10:32:59.482Z,97835.28
2022-08-10T10:35:36.670Z,97838.06
2022-08-10T10:38:06.578Z,97837.44
2022-08-10T10:40:47.067Z,97832.28
2022-08-10T10:43:31.787Z,97832.09
2022-08-10T10:46:23.586Z,97825.00
2022-08-10T10:49:19.335Z,97826.53
2022-08-10T10:52:02.916Z,97819.25
2022-08-10T10:54:59.842Z,97827.84
2022-08-10T10:57:59.318Z,97812.91
2022-08-10T11:00:27.815Z,97810.56
2022-08-10T11:03:01.556Z,97814.75
2022-08-10T11:05:40.567Z,97818.59
2022-08-10T11:08:29.142Z,97806.91
2022-08-10T11:11:02.798Z,97825.16
2022-08-10T11:14:27.428Z,97810.72
2022-08-10T11:16:57.241Z,97809.16
2022-08-10T11:20:02.782Z,97804.09
2022-08-10T11:22:46.238Z,97793.41
2022-08-10T11:25:18.727Z,97804.34
2022-08-10T11:27:56.694Z,97794.16
2022-08-10T11:30:33.932Z,97798.66
2022-08-10T11:33:30.837Z,97787.56
2022-08-10T11:36:08.875Z,97796.16
2022-08-10T11:39:13.965Z,97785.16
2022-08-10T11:42:08.022Z,97804.13
2022-08-10T11:45:03.016Z,97789.28
2022-08-10T11:47:32.685Z,97784.28
2022-08-10T11:50:11.277Z,97781.50
2022-08-10T11:52:50.305Z,97778.38
2022-08-10T11:55:23.316Z,97778.50
2022-08-10T11:57:55.762Z,97781.75
2022-08-10T12:00:24.918Z,97782.50
2022-08-10T12:02:59.584Z,97781.09
2022-08-10T12:05:51.638Z,97774.19
2022-08-10T12:10:05.551Z,97766.66
2022-08-10T12:11:09.023Z,97758.66
2022-08-10T12:14:10.645Z,97759.63
2022-08-10T12:16:40.603Z,97754.97
2022-08-10T12:19:58.718Z,97760.38
2022-08-10T12:22:33.104Z,97755.75
2022-08-10T12:25:03.917Z,97751.47
2022-08-10T12:27:52.067Z,97762.41
2022-08-10T12:30:26.539Z,97754.44
2022-08-10T12:33:07.865Z,97740.72
2022-08-10T12:35:56.070Z,97740.56
2022-08-10T12:38:39.387Z,97742.50
2022-08-10T12:41:43.591Z,97732.53
2022-08-10T12:44:42.355Z,97728.13
2022-08-10T12:47:34.716Z,97735.97
2022-08-10T12:50:33.521Z,97727.69
2022-08-10T12:53:14.552Z,97716.47
2022-08-10T12:55:42.345Z,97733.13
2022-08-10T12:58:59.903Z,97722.53
2022-08-10T13:01:21.361Z,97718.59
2022-08-10T13:04:23.349Z,97711.69
2022-08-10T13:06:43.514Z,97714.28
2022-08-10T13:09:10.203Z,97711.31
2022-08-10T13:12:35.494Z,97707.09
2022-08-10T13:15:45.158Z,97710.31
2022-08-10T13:18:02.606Z,97716.13
2022-08-10T13:20:37.106Z,97712.38
2022-08-10T13:23:13.151Z,97702.50
2022-08-10T13:25:43.105Z,97697.84
2022-08-10T13:28:35.380Z,97702.13
2022-08-10T13:31:05.468Z,97707.03
2022-08-10T13:34:40.943Z,97685.38
2022-08-10T13:36:28.882Z,97688.38
2022-08-10T13:38:57.159Z,97682.78
2022-08-10T13:41:34.025Z,97681.09
2022-08-10T13:44:01.757Z,97685.69
2022-08-10T13:46:28.546Z,97679.84
2022-08-10T13:48:58.032Z,97677.97
2022-08-10T13:51:53.702Z,97678.81
2022-08-10T13:54:18.720Z,97672.25
2022-08-10T13:56:47.556Z,97663.03
2022-08-10T13:59:16.341Z,97657.19
2022-08-10T14:01:50.235Z,97664.34
2022-08-10T14:04:19.581Z,97660.56
2022-08-10T14:06:54.443Z,97666.19
2022-08-10T14:09:28.360Z,97663.53
2022-08-10T14:11:56.529Z,97660.59
2022-08-10T14:14:25.644Z,97653.91
2022-08-10T14:16:53.914Z,97653.78
2022-08-10T14:19:27.705Z,97657.44
2022-08-10T14:21:54.598Z,97652.81
2022-08-10T14:24:27.718Z,97649.13
2022-08-10T14:27:10.074Z,97653.31
2022-08-10T14:29:56.274Z,97648.06
2022-08-10T14:32:27.360Z,97643.66
2022-08-10T14:36:22.200Z,97645.97
2022-08-10T14:37:56.027Z,97639.50
2022-08-10T14:40:26.805Z,97630.97
2022-08-10T14:43:01.499Z,97646.25
2022-08-10T14:45:31.747Z,97635.81
2022-08-10T14:48:11.808Z,97645.19
2022-08-10T14:50:49.472Z,97642.06
2022-08-10T14:53:26.901Z,97638.53
2022-08-10T14:56:00.891Z,97638.75
2022-08-10T14:58:38.540Z,97633.09
2022-08-10T15:01:07.878Z,97638.31
2022-08-10T15:04:01.069Z,97628.47
2022-08-10T15:06:53.975Z,97636.00
2022-08-10T15:09:23.357Z,97627.03
2022-08-10T15:12:15.857Z,97623.28
2022-08-10T15:14:58.462Z,97630.16
2022-08-10T15:17:34.823Z,97622.47
2022-08-10T15:20:14.876Z,97618.91
2022-08-10T15:22:49.965Z,97610.53
2022-08-10T15:25:24.437Z,97614.72
2022-08-10T15:28:05.071Z,97605.97
2022-08-10T15:31:03.810Z,97605.53
2022-08-10T15:34:04.370Z,97599.06
2022-08-10T15:37:02.496Z,97596.16
2022-08-10T15:40:22.508Z,97600.75
2022-08-10T15:43:00.174Z,97596.75
2022-08-10T15:45:27.479Z,97585.91
2022-08-10T15:48:03.385Z,97585.47
2022-08-10T15:50:50.849Z,97593.00
2022-08-10T15:53:50.759Z,97594.25
2022-08-10T15:56:43.571Z,97588.81
2022-08-10T15:59:29.788Z,97587.78
2022-08-10T16:02:15.006Z,97584.66
2022-08-10T16:04:57.202Z,97590.94
2022-08-10T16:07:50.118Z,97595.94
2022-08-10T16:10:25.534Z,97584.63
2022-08-10T16:13:50.974Z,97584.38
2022-08-10T16:16:05.408Z,97579.63
2022-08-10T16:18:37.450Z,97587.94
2022-08-10T16:21:17.322Z,97584.00
2022-08-10T16:24:14.300Z,97578.75
2022-08-10T16:26:46.700Z,97572.91
2022-08-10T16:29:18.287Z,97578.09
2022-08-10T16:31:54.951Z,97571.03
2022-08-10T16:34:23.746Z,97571.03
2022-08-10T16:36:59.605Z,97567.06
2022-08-10T16:39:57.761Z,97571.66
2022-08-10T16:42:24.723Z,97573.34
2022-08-10T16:45:11.762Z,97572.72
2022-08-10T16:47:46.899Z,97573.97
2022-08-10T16:50:17.109Z,97564.16
2022-08-10T16:52:44.873Z,97569.53
2022-08-10T16:55:49.478Z,97568.66
2022-08-10T16:58:14.034Z,97565.97
2022-08-10T17:00:42.883Z,97558.19
2022-08-10T17:03:22.514Z,97554.06
2022-08-10T17:06:11.863Z,97563.03
2022-08-10T17:08:48.536Z,97556.75
2022-08-10T17:11:18.438Z,97560.47
2022-08-10T17:13:45.505Z,97559.56
2022-08-10T17:16:14.558Z,97561.03
2022-08-10T17:18:45.127Z,97556.19
2022-08-10T17:21:28.306Z,97560.16
2022-08-10T17:23:57.992Z,97555.31
2022-08-10T17:26:36.094Z,97553.03
2022-08-10T17:29:53.279Z,97557.78
2022-08-10T17:32:05.459Z,97547.13
2022-08-10T17:34:40.096Z,97556.28
2022-08-10T17:37:16.112Z,97551.66
2022-08-10T17:39:47.909Z,97561.00
2022-08-10T17:42:21.852Z,97550.13
2022-08-10T17:44:52.089Z,97558.81
2022-08-10T17:47:20.892Z,97556.06
2022-08-10T17:49:49.667Z,97556.47
2022-08-10T17:52:21.698Z,97553.34
2022-08-10T17:54:55.070Z,97553.06
2022-08-10T17:57:23.938Z,97553.22
2022-08-10T17:59:52.779Z,97557.38
2022-08-10T18:02:27.245Z,97552.94
2022-08-10T18:04:57.255Z,97552.47
2022-08-10T18:07:33.565Z,97555.72
2022-08-10T18:10:01.656Z,97562.94
2022-08-10T18:12:38.759Z,97556.88
2022-08-10T18:15:12.253Z,97553.47
2022-08-10T18:17:59.413Z,97564.63
2022-08-10T18:20:34.397Z,97554.97
2022-08-10T18:23:02.024Z,97555.78
2022-08-10T18:25:35.535Z,97568.72
2022-08-10T18:28:05.944Z,97563.94
2022-08-10T18:30:45.151Z,97565.47
2022-08-10T18:33:14.162Z,97567.78
2022-08-10T18:35:43.756Z,97569.84
2022-08-10T18:38:11.633Z,97568.22
2022-08-10T18:40:44.357Z,97569.25
2022-08-10T18:44:06.977Z,97571.66
2022-08-10T18:46:06.419Z,97582.34
2022-08-10T18:48:49.183Z,97574.13
2022-08-10T18:51:24.034Z,97585.38
2022-08-10T18:53:56.891Z,97584.53
2022-08-10T18:56:29.314Z,97587.78
2022-08-10T18:59:17.608Z,97581.00
2022-08-10T19:01:53.008Z,97594.69
2022-08-10T19:04:43.525Z,97584.06
2022-08-10T19:07:22.071Z,97586.66
2022-08-10T19:10:03.605Z,97580.25
2022-08-10T19:12:51.678Z,97590.31
2022-08-10T19:15:44.819Z,97589.03
2022-08-10T19:18:12.315Z,97599.97
2022-08-10T19:20:55.519Z,97597.63
2022-08-10T19:23:36.158Z,97601.06
2022-08-10T19:26:44.245Z,97601.69
2022-08-10T19:30:09.161Z,97602.97
2022-08-10T19:32:51.755Z,97607.69
2022-08-10T19:36:03.803Z,97606.34
2022-08-10T19:38:53.516Z,97610.91
2022-08-10T19:41:40.372Z,97610.25
2022-08-10T19:44:48.395Z,97600.50
2022-08-10T19:47:45.081Z,97608.28
2022-08-10T19:50:19.302Z,97612.31
2022-08-10T19:53:03.971Z,97616.66
2022-08-10T19:55:36.679Z,97612.13
2022-08-10T19:58:15.295Z,97626.63
2022-08-10T20:00:56.192Z,97618.53
2022-08-10T20:03:29.062Z,97626.56
2022-08-10T20:06:18.371Z,97626.75
2022-08-10T20:09:13.754Z,97625.75
2022-08-10T20:12:07.756Z,97620.72
2022-08-10T20:14:58.882Z,97627.13
2022-08-10T20:17:51.354Z,97617.31
2022-08-10T20:20:31.583Z,97622.91
2022-08-10T20:23:19.048Z,97632.88
2022-08-10T20:25:55.858Z,97635.59
2022-08-10T20:29:16.213Z,97632.78
2022-08-10T20:31:54.018Z,97631.13
2022-08-10T20:34:23.066Z,97636.63
2022-08-10T20:37:06.719Z,97636.16
2022-08-10T20:40:12.176Z,97644.22
2022-08-10T20:43:10.571Z,97643.03
2022-08-10T20:46:06.857Z,97637.16
2022-08-10T20:48:36.741Z,97652.28
2022-08-10T20:51:08.154Z,97645.06
2022-08-10T20:53:45.172Z,97645.56
2022-08-10T20:56:21.493Z,97647.91
2022-08-10T20:59:00.115Z,97648.25
2022-08-10T21:02:06.599Z,97642.88
2022-08-10T21:04:53.731Z,97643.53
2022-08-10T21:08:01.540Z,97642.53
2022-08-10T21:10:48.482Z,97642.53
2022-08-10T21:13:45.187Z,97634.66
2022-08-10T21:16:36.547Z,97643.38
2022-08-10T21:19:19.839Z,97642.22
2022-08-10T21:21:56.987Z,97635.28
2022-08-10T21:24:34.916Z,97638.31
2022-08-10T21:27:35.728Z,97634.97
2022-08-10T21:30:25.113Z,97637.97
2022-08-10T21:33:00.185Z,97637.09
2022-08-10T21:35:49.633Z,97646.13
2022-08-10T21:38:37.862Z,97642.09
2022-08-10T21:41:57.794Z,97641.44
2022-08-10T21:45:14.009Z,97639.41
2022-08-10T21:48:16.873Z,97634.19
2022-08-10T21:51:24.657Z,97630.16
2022-08-10T21:54:47.362Z,97625.97
2022-08-10T21:57:58.493Z,97630.16
2022-08-10T22:00:43.859Z,97623.25
2022-08-10T22:03:39.641Z,97619.91
2022-08-10T22:06:28.128Z,97614.00
2022-08-10T22:09:27.136Z,97617.38
2022-08-10T22:12:25.114Z,97621.72
2022-08-10T22:16:05.609Z,97616.50
2022-08-10T22:18:35.903Z,97621.16
2022-08-10T22:22:07.746Z,97617.94
2022-08-10T22:25:24.151Z,97612.91
2022-08-10T22:28:17.777Z,97607.56
2022-08-10T22:31:33.437Z,97609.75
2022-08-10T22:35:03.836Z,97604.72
2022-08-10T22:38:11.199Z,97604.53
2022-08-10T22:41:02.442Z,97602.00
2022-08-10T22:43:51.594Z,97603.31
2022-08-10T22:46:40.490Z,97610.03
2022-08-10T22:49:07.658Z,97611.50
2022-08-10T22:51:46.691Z,97614.94
2022-08-10T22:54:57.135Z,97607.28
2022-08-10T22:57:42.199Z,97615.66
2022-08-10T23:00:17.624Z,97613.09
2022-08-10T23:02:51.981Z,97614.88
2022-08-10T23:05:30.308Z,97612.28
2022-08-10T23:08:08.017Z,97612.72
2022-08-10T23:10:41.621Z,97610.16
2022-08-10T23:13:35.615Z,97606.97
2022-08-10T23:16:45.875Z,97609.25
2022-08-10T23:19:29.845Z,97609.41
2022-08-10T23:22:07.611Z,97605.34
2022-08-10T23:24:39.672Z,97607.06
2022-08-10T23:27:13.132Z,97608.38
2022-08-10T23:30:10.632Z,97605.63
2022-08-10T23:32:42.357Z,97606.06
2022-08-10T23:36:30.367Z,97610.81
2022-08-10T23:38:10.258Z,97597.34
2022-08-10T23:40:38.102Z,97608.63
2022-08-10T23:43:06.815Z,97609.34
2022-08-10T23:45:53.345Z,97609.63
2022-08-10T23:48:25.959Z,97615.84
2022-08-10T23:50:58.274Z,97614.91
2022-08-10T23:53:35.342Z,97603.44
2022-08-10T23:56:08.112Z,97608.53
2022-08-10T23:58:39.692Z,97605.84
